Time;durP1;ratioP1;P1;durP2;ratioP2;P2;SDS_P1;SDS_P2;PMS_P1;PMS_P2;Temp;Humidity;BMP_temperature;BMP_pressure;BME280_temperature;BME280_humidity;BME280_pressure;Samples;Min_cycle;Max_cycle;Signal;HPM_P1;HPM_P2
2022/04/28 00:00:57;;;;;;;6.57;1.83;;;;;;;;;;4952706;28;20470;-72
2022/04/28 00:03:24;;;;;;;4.50;2.22;;;;;;;;;;4952299;28;20062;-72
2022/04/28 00:05:50;;;;;;;5.50;2.00;;;;;;;;;;4952872;28;20043;-70
2022/04/28 00:08:16;;;;;;;4.00;2.03;;;;;;;;;;4952782;28;20452;-70
2022/04/28 00:10:42;;;;;;;6.95;2.28;;;;;;;;;;4952315;28;20051;-69
2022/04/28 00:13:09;;;;;;;4.63;1.90;;;;;;;;;;4951832;28;20468;-68
2022/04/28 00:15:35;;;;;;;14.18;2.33;;;;;;;;;;4950378;28;20047;-70
2022/04/28 00:18:01;;;;;;;5.07;2.10;;;;;;;;;;4949871;28;20047;-69
2022/04/28 00:20:27;;;;;;;7.45;2.25;;;;;;;;;;4951558;28;20047;-70
2022/04/28 00:22:53;;;;;;;3.30;1.60;;;;;;;;;;4949952;28;20067;-69
2022/04/28 00:25:21;;;;;;;3.97;1.90;;;;;;;;;;4951684;28;20043;-69
2022/04/28 00:27:47;;;;;;;6.00;1.95;;;;;;;;;;4950441;28;20055;-69
2022/04/28 00:30:13;;;;;;;2.75;1.55;;;;;;;;;;4951445;28;20047;-70
2022/04/28 00:32:39;;;;;;;6.25;1.70;;;;;;;;;;4950926;28;20055;-70
2022/04/28 00:35:05;;;;;;;3.72;2.10;;;;;;;;;;4951602;28;20043;-70
2022/04/28 00:37:31;;;;;;;2.92;1.73;;;;;;;;;;4951405;28;20055;-69
2022/04/28 00:39:57;;;;;;;4.53;2.35;;;;;;;;;;4951137;28;20083;-70
2022/04/28 00:42:23;;;;;;;5.30;1.98;;;;;;;;;;4951495;28;20421;-71
2022/04/28 00:44:49;;;;;;;5.10;1.70;;;;;;;;;;4950636;28;20058;-70
2022/04/28 00:47:15;;;;;;;6.35;2.28;;;;;;;;;;4950019;29;20051;-70
2022/04/28 00:52:29;;;;;;;3.90;1.80;;;;;;;;;;4951156;28;20483;-71
2022/04/28 00:54:55;;;;;;;3.95;1.80;;;;;;;;;;4948890;28;20051;-71
2022/04/28 00:57:22;;;;;;;5.18;2.13;;;;;;;;;;4949938;29;20051;-72
2022/04/28 00:59:49;;;;;;;3.75;1.92;;;;;;;;;;4950906;28;20047;-71
2022/04/28 01:02:16;;;;;;;7.63;2.15;;;;;;;;;;4950919;28;20040;-71
2022/04/28 01:04:43;;;;;;;5.38;2.10;;;;;;;;;;4950772;28;20093;-71
2022/04/28 01:07:09;;;;;;;4.55;2.10;;;;;;;;;;4949688;28;20434;-71
2022/04/28 01:09:36;;;;;;;6.93;2.33;;;;;;;;;;4949260;28;20054;-71
2022/04/28 01:12:05;;;;;;;4.82;2.22;;;;;;;;;;4896728;29;1090606;-72
2022/04/28 01:14:31;;;;;;;5.45;2.30;;;;;;;;;;4951253;28;20047;-71
2022/04/28 01:17:01;;;;;;;3.85;2.00;;;;;;;;;;4951397;28;20146;-71
2022/04/28 01:19:27;;;;;;;4.22;2.13;;;;;;;;;;4951478;28;20098;-71
2022/04/28 01:21:53;;;;;;;4.32;1.73;;;;;;;;;;4950822;28;20087;-69
2022/04/28 01:24:19;;;;;;;4.45;1.90;;;;;;;;;;4951274;28;20057;-69
2022/04/28 01:26:47;;;;;;;4.60;1.70;;;;;;;;;;4951131;28;20051;-69
2022/04/28 01:29:13;;;;;;;6.15;2.10;;;;;;;;;;4950901;28;20047;-69
2022/04/28 01:31:39;;;;;;;3.35;1.85;;;;;;;;;;4950558;28;20417;-69
2022/04/28 01:34:05;;;;;;;8.38;1.70;;;;;;;;;;4951121;28;20130;-69
2022/04/28 01:36:31;;;;;;;3.38;1.80;;;;;;;;;;4951274;28;20438;-69
2022/04/28 01:38:57;;;;;;;4.68;2.17;;;;;;;;;;4951041;28;20417;-69
2022/04/28 01:41:24;;;;;;;5.00;2.03;;;;;;;;;;4950878;28;20047;-69
2022/04/28 01:43:50;;;;;;;3.17;1.70;;;;;;;;;;4950609;28;20098;-69
2022/04/28 01:46:16;;;;;;;3.33;1.50;;;;;;;;;;4949782;28;20098;-69
2022/04/28 01:48:42;;;;;;;3.70;2.00;;;;;;;;;;4949805;28;20476;-69
2022/04/28 01:56:38;;;;;;;3.88;1.83;;;;;;;;;;4950749;28;20142;-69
2022/04/28 01:59:07;;;;;;;5.35;1.77;;;;;;;;;;4949329;28;20137;-69
2022/04/28 02:01:33;;;;;;;9.57;3.17;;;;;;;;;;4950858;28;20125;-70
2022/04/28 02:03:59;;;;;;;4.10;2.00;;;;;;;;;;4950954;28;20058;-70
2022/04/28 02:06:25;;;;;;;4.05;2.08;;;;;;;;;;4951000;28;20151;-69
2022/04/28 02:08:51;;;;;;;3.05;1.65;;;;;;;;;;4950496;28;20421;-69
2022/04/28 02:11:17;;;;;;;2.97;1.83;;;;;;;;;;4949987;28;20493;-69
2022/04/28 02:13:44;;;;;;;3.35;2.17;;;;;;;;;;4949796;28;20047;-69
2022/04/28 02:16:10;;;;;;;4.85;2.00;;;;;;;;;;4950761;28;20137;-70
2022/04/28 02:18:36;;;;;;;3.80;1.83;;;;;;;;;;4950632;28;20474;-69
2022/04/28 02:21:02;;;;;;;3.42;2.05;;;;;;;;;;4950619;28;20070;-70
2022/04/28 02:23:28;;;;;;;4.40;1.77;;;;;;;;;;4949532;28;20409;-69
2022/04/28 02:25:54;;;;;;;4.25;1.80;;;;;;;;;;4948892;28;20069;-71
2022/04/28 02:28:20;;;;;;;2.65;1.80;;;;;;;;;;4950287;28;20568;-71
2022/04/28 02:30:46;;;;;;;3.72;1.60;;;;;;;;;;4949683;28;20470;-71
2022/04/28 02:33:13;;;;;;;3.20;1.80;;;;;;;;;;4950341;28;20055;-71
2022/04/28 02:35:39;;;;;;;3.75;1.92;;;;;;;;;;4949676;28;20465;-71
2022/04/28 02:38:05;;;;;;;2.72;1.60;;;;;;;;;;4950463;28;20564;-70
2022/04/28 02:40:32;;;;;;;3.42;1.70;;;;;;;;;;4950696;28;20058;-71
2022/04/28 02:42:58;;;;;;;3.40;2.05;;;;;;;;;;4950432;28;20055;-71
2022/04/28 02:45:24;;;;;;;3.33;1.80;;;;;;;;;;4949686;28;20047;-71
2022/04/28 02:47:50;;;;;;;2.50;1.60;;;;;;;;;;4949074;28;20043;-70
2022/04/28 02:50:16;;;;;;;5.07;2.00;;;;;;;;;;4950699;28;20047;-68
2022/04/28 02:52:42;;;;;;;30.00;2.60;;;;;;;;;;4952614;28;20134;-72
2022/04/28 02:55:08;;;;;;;5.38;1.83;;;;;;;;;;4954196;28;20075;-71
2022/04/28 02:57:34;;;;;;;6.90;1.95;;;;;;;;;;4952610;29;20047;-72
2022/04/28 03:00:04;;;;;;;9.82;1.70;;;;;;;;;;4953968;28;20567;-70
2022/04/28 03:02:30;;;;;;;;;;;;;;;;;;4953276;29;20083;-71
2022/04/28 03:04:56;;;;;;;5.15;2.10;;;;;;;;;;4953658;28;19936;-70
2022/04/28 03:12:52;;;;;;;7.50;1.98;;;;;;;;;;4953683;28;20051;-71
2022/04/28 03:15:19;;;;;;;5.10;1.88;;;;;;;;;;4953610;28;20177;-70
2022/04/28 03:17:45;;;;;;;7.65;2.05;;;;;;;;;;4953447;28;20047;-69
2022/04/28 03:20:11;;;;;;;14.93;4.20;;;;;;;;;;4953787;28;20553;-69
2022/04/28 03:22:37;;;;;;;4.00;1.80;;;;;;;;;;4953547;28;20082;-70
2022/04/28 03:25:04;;;;;;;3.95;1.75;;;;;;;;;;4951402;28;20568;-70
2022/04/28 03:27:33;;;;;;;4.53;2.20;;;;;;;;;;4952211;28;20062;-70
2022/04/28 03:29:59;;;;;;;7.32;1.88;;;;;;;;;;4952404;28;20043;-70
2022/04/28 03:32:25;;;;;;;4.95;1.80;;;;;;;;;;4953356;28;20043;-70
2022/04/28 03:34:51;;;;;;;5.60;1.88;;;;;;;;;;4952879;28;20051;-70
2022/04/28 03:37:17;;;;;;;5.47;2.20;;;;;;;;;;4953131;28;20055;-70
2022/04/28 03:39:43;;;;;;;5.85;1.98;;;;;;;;;;4953061;28;20057;-70
2022/04/28 03:42:09;;;;;;;7.18;2.33;;;;;;;;;;4953149;28;20069;-70
2022/04/28 03:44:35;;;;;;;6.03;2.58;;;;;;;;;;4952870;28;20054;-70
2022/04/28 03:47:02;;;;;;;2.70;1.50;;;;;;;;;;4953146;28;20114;-70
2022/04/28 03:49:29;;;;;;;5.20;1.80;;;;;;;;;;4952653;28;20158;-70
2022/04/28 03:51:55;;;;;;;5.18;1.85;;;;;;;;;;4952876;28;20568;-70
2022/04/28 03:54:21;;;;;;;3.50;1.60;;;;;;;;;;4952988;28;20134;-70
2022/04/28 03:56:47;;;;;;;3.88;1.70;;;;;;;;;;4952768;28;20493;-69
2022/04/28 03:59:14;;;;;;;4.35;1.70;;;;;;;;;;4951670;28;20058;-70
2022/04/28 04:01:40;;;;;;;2.63;1.45;;;;;;;;;;4951632;28;20110;-69
2022/04/28 04:04:06;;;;;;;4.82;1.58;;;;;;;;;;4952474;28;20050;-69
2022/04/28 04:06:32;;;;;;;4.78;2.10;;;;;;;;;;4952909;28;20050;-70
2022/04/28 04:08:58;;;;;;;4.00;1.98;;;;;;;;;;4952500;28;20051;-70
2022/04/28 04:11:24;;;;;;;9.90;2.17;;;;;;;;;;4952736;28;20390;-70
2022/04/28 04:13:50;;;;;;;4.95;2.13;;;;;;;;;;4952356;28;20039;-70
2022/04/28 04:16:16;;;;;;;2.67;1.67;;;;;;;;;;4952756;28;20511;-70
2022/04/28 04:18:42;;;;;;;3.95;2.05;;;;;;;;;;4952391;28;20047;-70
2022/04/28 04:21:08;;;;;;;4.93;1.88;;;;;;;;;;4952540;28;20048;-69
2022/04/28 04:23:35;;;;;;;2.72;1.63;;;;;;;;;;4952523;28;20374;-69
2022/04/28 04:26:04;;;;;;;5.07;1.90;;;;;;;;;;4952622;28;20051;-69
2022/04/28 04:28:30;;;;;;;2.53;1.50;;;;;;;;;;4951293;28;20086;-69
2022/04/28 04:33:40;;;;;;;2.53;1.52;;;;;;;;;;4953251;28;20442;-70
2022/04/28 04:36:07;;;;;;;3.25;1.60;;;;;;;;;;4953039;28;20047;-70
2022/04/28 04:38:33;;;;;;;4.43;1.80;;;;;;;;;;4951603;28;20075;-69
2022/04/28 04:40:59;;;;;;;4.93;1.75;;;;;;;;;;4951618;28;20055;-70
2022/04/28 04:43:25;;;;;;;4.55;1.83;;;;;;;;;;4951031;29;20054;-70
2022/04/28 04:45:51;;;;;;;2.95;1.70;;;;;;;;;;4951982;28;20082;-69
2022/04/28 04:48:17;;;;;;;3.28;1.65;;;;;;;;;;4951034;28;20107;-69
2022/04/28 04:50:43;;;;;;;3.92;1.75;;;;;;;;;;4947176;28;20449;-70
2022/04/28 04:53:09;;;;;;;3.42;1.50;;;;;;;;;;4952324;28;20417;-69
2022/04/28 04:55:39;;;;;;;3.63;1.60;;;;;;;;;;4951962;28;20051;-69
2022/04/28 04:58:05;;;;;;;2.33;1.67;;;;;;;;;;4952317;28;20047;-70
2022/04/28 05:00:31;;;;;;;5.50;1.80;;;;;;;;;;4950875;28;20039;-69
2022/04/28 05:02:58;;;;;;;5.55;2.08;;;;;;;;;;4950378;28;20050;-69
2022/04/28 05:05:24;;;;;;;4.25;1.55;;;;;;;;;;4952067;28;20114;-69
2022/04/28 05:07:50;;;;;;;3.45;1.75;;;;;;;;;;4951863;28;20486;-70
2022/04/28 05:10:16;;;;;;;3.30;1.80;;;;;;;;;;4951407;28;20081;-69
2022/04/28 05:12:42;;;;;;;3.10;1.73;;;;;;;;;;4951214;28;20063;-69
2022/04/28 05:15:08;;;;;;;2.80;1.85;;;;;;;;;;4951311;28;20135;-69
2022/04/28 05:17:35;;;;;;;3.20;1.52;;;;;;;;;;4951624;28;20422;-70
2022/04/28 05:20:01;;;;;;;4.10;1.92;;;;;;;;;;4951814;28;20059;-68
2022/04/28 05:22:28;;;;;;;5.85;1.88;;;;;;;;;;4951647;28;20055;-71
2022/04/28 05:24:54;;;;;;;4.72;1.80;;;;;;;;;;4951251;28;20114;-70
2022/04/28 05:27:20;;;;;;;3.92;1.35;;;;;;;;;;4951433;28;20143;-70
2022/04/28 05:29:46;;;;;;;3.25;1.70;;;;;;;;;;4951030;28;20063;-71
2022/04/28 05:32:12;;;;;;;4.53;1.70;;;;;;;;;;4951499;28;20135;-70
2022/04/28 05:34:38;;;;;;;5.25;1.67;;;;;;;;;;4951404;28;20047;-70
2022/04/28 05:37:04;;;;;;;6.40;2.10;;;;;;;;;;4949695;29;20046;-70
2022/04/28 05:39:31;;;;;;;4.20;1.63;;;;;;;;;;4951246;28;20043;-70
2022/04/28 05:41:57;;;;;;;4.80;1.88;;;;;;;;;;4950982;28;20047;-70
2022/04/28 05:47:08;;;;;;;5.05;1.80;;;;;;;;;;4949718;29;20118;-71
2022/04/28 05:49:34;;;;;;;3.10;1.60;;;;;;;;;;4951136;28;20110;-71
2022/04/28 05:52:01;;;;;;;2.88;1.55;;;;;;;;;;4941808;28;20467;-71
2022/04/28 05:54:27;;;;;;;2.53;1.60;;;;;;;;;;4932074;29;20139;-71
2022/04/28 05:56:53;;;;;;;3.78;1.60;;;;;;;;;;4931674;29;20362;-71
2022/04/28 05:59:19;;;;;;;2.85;1.58;;;;;;;;;;4931697;29;20055;-71
2022/04/28 06:01:45;;;;;;;3.38;1.63;;;;;;;;;;4931328;29;20047;-71
2022/04/28 06:04:11;;;;;;;3.03;1.45;;;;;;;;;;4930811;29;20597;-70
2022/04/28 06:06:37;;;;;;;2.25;1.33;;;;;;;;;;4931796;29;20051;-70
2022/04/28 06:09:04;;;;;;;2.75;1.52;;;;;;;;;;4930854;29;20063;-70
2022/04/28 06:11:30;;;;;;;3.42;1.60;;;;;;;;;;4930664;29;20059;-70
2022/04/28 06:13:56;;;;;;;7.25;1.48;;;;;;;;;;4931658;29;20067;-70
2022/04/28 06:16:22;;;;;;;3.83;1.70;;;;;;;;;;4931796;29;20127;-69
2022/04/28 06:18:48;;;;;;;4.28;1.60;;;;;;;;;;4931376;29;20054;-69
2022/04/28 06:21:14;;;;;;;4.00;1.40;;;;;;;;;;4932021;29;20470;-69
2022/04/28 06:23:40;;;;;;;7.85;2.13;;;;;;;;;;4931600;29;20051;-68
2022/04/28 06:26:06;;;;;;;2.70;1.50;;;;;;;;;;4935047;29;20069;-68
2022/04/28 06:28:33;;;;;;;6.82;1.40;;;;;;;;;;4935395;29;20414;-68
2022/04/28 06:30:59;;;;;;;4.30;1.63;;;;;;;;;;4934259;29;20051;-68
2022/04/28 06:33:25;;;;;;;4.18;1.73;;;;;;;;;;4935930;29;20451;-67
2022/04/28 06:35:51;;;;;;;5.32;1.88;;;;;;;;;;4934976;29;20099;-68
2022/04/28 06:38:17;;;;;;;5.15;1.58;;;;;;;;;;4935667;29;20409;-68
2022/04/28 06:40:43;;;;;;;5.32;1.40;;;;;;;;;;4935378;29;20044;-67
2022/04/28 06:43:09;;;;;;;3.03;1.52;;;;;;;;;;4935312;29;20518;-68
2022/04/28 06:45:36;;;;;;;4.90;1.15;;;;;;;;;;4935003;29;20048;-68
2022/04/28 06:48:02;;;;;;;6.53;1.50;;;;;;;;;;4935506;29;20513;-68
2022/04/28 06:50:28;;;;;;;2.75;1.33;;;;;;;;;;4935113;29;20048;-67
2022/04/28 06:52:54;;;;;;;3.88;1.60;;;;;;;;;;4934746;29;20048;-67
2022/04/28 06:55:20;;;;;;;2.95;1.20;;;;;;;;;;4935242;29;20122;-66
2022/04/28 06:57:46;;;;;;;3.15;1.38;;;;;;;;;;4934792;29;20054;-66
2022/04/28 07:00:13;;;;;;;2.72;1.35;;;;;;;;;;4934793;29;20047;-67
2022/04/28 07:02:39;;;;;;;3.00;1.40;;;;;;;;;;4935076;29;20051;-68
2022/04/28 07:05:05;;;;;;;2.95;1.30;;;;;;;;;;4934934;29;20047;-67
2022/04/28 07:07:31;;;;;;;4.40;1.70;;;;;;;;;;4934592;29;20052;-67
2022/04/28 07:09:57;;;;;;;4.65;1.67;;;;;;;;;;4934756;29;20134;-68
2022/04/28 07:12:23;;;;;;;4.95;1.25;;;;;;;;;;4935418;29;20056;-67
2022/04/28 07:14:49;;;;;;;2.78;1.35;;;;;;;;;;4933801;29;20065;-68
2022/04/28 07:17:15;;;;;;;2.85;1.27;;;;;;;;;;4934449;29;20055;-68
2022/04/28 07:19:41;;;;;;;1.98;1.17;;;;;;;;;;4934734;29;20518;-68
2022/04/28 07:22:08;;;;;;;4.47;1.48;;;;;;;;;;4934756;29;20134;-68
2022/04/28 07:24:35;;;;;;;2.80;1.63;;;;;;;;;;4934842;29;20055;-68
2022/04/28 07:27:02;;;;;;;2.58;1.50;;;;;;;;;;4934421;29;20059;-68
2022/04/28 07:29:28;;;;;;;3.63;1.65;;;;;;;;;;4934254;29;20039;-68
2022/04/28 07:31:54;;;;;;;6.68;1.30;;;;;;;;;;4934420;29;20524;-67
2022/04/28 07:34:20;;;;;;;4.47;1.52;;;;;;;;;;4934758;29;20086;-67
2022/04/28 07:36:46;;;;;;;2.95;1.25;;;;;;;;;;4934285;29;20044;-67
2022/04/28 07:39:13;;;;;;;4.50;1.35;;;;;;;;;;4934623;29;20052;-67
2022/04/28 07:41:39;;;;;;;6.18;1.33;;;;;;;;;;4934209;29;20098;-67
2022/04/28 07:44:05;;;;;;;4.72;1.42;;;;;;;;;;4934003;29;20055;-67
2022/04/28 07:46:31;;;;;;;3.47;1.58;;;;;;;;;;4934573;29;20132;-68
2022/04/28 07:48:57;;;;;;;3.85;1.20;;;;;;;;;;4932898;29;20048;-67
2022/04/28 07:51:23;;;;;;;3.45;1.10;;;;;;;;;;4934421;29;20108;-68
2022/04/28 07:53:49;;;;;;;2.67;1.20;;;;;;;;;;4933624;29;20048;-68
2022/04/28 07:56:17;;;;;;;3.53;1.10;;;;;;;;;;4934054;29;20062;-67
2022/04/28 07:58:43;;;;;;;3.47;0.90;;;;;;;;;;4934143;29;20055;-66
2022/04/28 08:01:09;;;;;;;2.53;1.02;;;;;;;;;;4933981;29;20054;-67
2022/04/28 08:03:36;;;;;;;4.07;1.15;;;;;;;;;;4933909;29;20434;-66
2022/04/28 08:06:02;;;;;;;3.88;1.10;;;;;;;;;;4933914;29;20040;-66
2022/04/28 08:08:28;;;;;;;3.95;1.20;;;;;;;;;;4932049;29;20051;-67
2022/04/28 08:10:54;;;;;;;3.50;1.20;;;;;;;;;;4933307;29;20052;-66
2022/04/28 08:13:20;;;;;;;3.47;1.08;;;;;;;;;;4933256;29;20429;-66
2022/04/28 08:15:46;;;;;;;2.67;0.80;;;;;;;;;;4932600;29;20056;-67
2022/04/28 08:18:12;;;;;;;3.22;0.98;;;;;;;;;;4933018;29;20040;-66
2022/04/28 08:20:41;;;;;;;3.13;1.00;;;;;;;;;;4931842;29;20139;-68
2022/04/28 08:23:08;;;;;;;3.70;1.30;;;;;;;;;;4932391;29;20126;-68
2022/04/28 08:25:34;;;;;;;3.78;1.25;;;;;;;;;;4931897;29;20048;-68
2022/04/28 08:28:00;;;;;;;2.67;1.10;;;;;;;;;;4931784;29;20111;-69
2022/04/28 08:30:26;;;;;;;3.30;1.20;;;;;;;;;;4931433;29;20417;-68
2022/04/28 08:32:52;;;;;;;2.72;1.00;;;;;;;;;;4929741;29;20050;-67
2022/04/28 08:35:19;;;;;;;3.78;1.08;;;;;;;;;;4931530;29;20043;-67
2022/04/28 08:37:45;;;;;;;3.15;1.15;;;;;;;;;;4931310;29;20445;-67
2022/04/28 08:40:11;;;;;;;3.15;1.10;;;;;;;;;;4931573;29;20048;-68
2022/04/28 08:42:38;;;;;;;3.50;1.08;;;;;;;;;;4932069;29;20047;-66
2022/04/28 08:45:04;;;;;;;3.63;1.05;;;;;;;;;;4930483;29;20134;-67
2022/04/28 08:47:31;;;;;;;4.38;1.20;;;;;;;;;;4925826;29;20039;-67
2022/04/28 08:49:57;;;;;;;5.32;1.38;;;;;;;;;;4930530;29;20048;-67
2022/04/28 08:52:24;;;;;;;2.42;1.00;;;;;;;;;;4929217;29;20043;-67
2022/04/28 08:54:53;;;;;;;3.15;1.27;;;;;;;;;;4931100;29;20036;-67
2022/04/28 08:57:19;;;;;;;5.85;1.33;;;;;;;;;;4930647;29;20086;-67
2022/04/28 08:59:46;;;;;;;4.13;1.30;;;;;;;;;;4930957;29;20604;-67
2022/04/28 09:02:12;;;;;;;2.35;1.15;;;;;;;;;;4931114;29;20047;-67
2022/04/28 09:04:39;;;;;;;3.35;1.10;;;;;;;;;;4930576;29;20052;-68
2022/04/28 09:07:08;;;;;;;4.82;1.20;;;;;;;;;;4931484;29;20044;-68
2022/04/28 09:09:34;;;;;;;2.55;1.08;;;;;;;;;;4928882;29;20043;-69
2022/04/28 09:12:01;;;;;;;3.65;1.27;;;;;;;;;;4932219;29;20056;-69
2022/04/28 09:14:27;;;;;;;5.75;1.40;;;;;;;;;;4932812;29;20055;-68
2022/04/28 09:17:02;;;;;;;2.72;1.08;;;;;;;;;;4931718;29;20051;-67
2022/04/28 09:19:30;;;;;;;4.60;1.13;;;;;;;;;;4932109;29;20387;-68
2022/04/28 09:22:00;;;;;;;4.03;1.30;;;;;;;;;;4931846;29;20066;-67
2022/04/28 09:24:27;;;;;;;4.40;1.05;;;;;;;;;;4931783;29;20043;-67
2022/04/28 09:26:54;;;;;;;3.83;1.35;;;;;;;;;;4932347;29;20502;-67
2022/04/28 09:29:20;;;;;;;3.08;1.52;;;;;;;;;;4932244;29;20043;-69
2022/04/28 09:31:48;;;;;;;3.78;1.20;;;;;;;;;;4930879;29;20501;-68
2022/04/28 09:34:15;;;;;;;2.60;1.08;;;;;;;;;;4931277;29;20083;-67
2022/04/28 09:36:43;;;;;;;4.35;1.40;;;;;;;;;;4932515;29;20473;-68
2022/04/28 09:39:09;;;;;;;4.15;1.23;;;;;;;;;;4932057;29;20052;-67
2022/04/28 09:44:21;;;;;;;5.20;1.52;;;;;;;;;;4931902;29;20071;-68
2022/04/28 09:46:47;;;;;;;3.00;1.27;;;;;;;;;;4931758;29;20418;-69
2022/04/28 09:49:15;;;;;;;2.65;1.25;;;;;;;;;;4931460;29;20054;-68
2022/04/28 09:51:42;;;;;;;3.05;1.20;;;;;;;;;;4929785;29;20052;-68
2022/04/28 09:54:10;;;;;;;4.03;1.38;;;;;;;;;;4930494;29;20043;-68
2022/04/28 09:56:37;;;;;;;7.45;1.85;;;;;;;;;;4929214;29;20050;-68
2022/04/28 09:59:05;;;;;;;5.78;1.33;;;;;;;;;;4925863;28;20051;-69
2022/04/28 10:01:31;;;;;;;3.47;1.15;;;;;;;;;;4930187;29;20062;-68
2022/04/28 10:03:58;;;;;;;6.93;1.35;;;;;;;;;;4921523;29;20051;-68
2022/04/28 10:06:25;;;;;;;5.70;1.50;;;;;;;;;;4928914;29;20044;-69
2022/04/28 10:08:55;;;;;;;4.20;1.40;;;;;;;;;;4927078;29;20043;-69
2022/04/28 10:11:25;;;;;;;3.47;1.23;;;;;;;;;;4929453;29;20091;-69
2022/04/28 10:13:51;;;;;;;3.58;1.20;;;;;;;;;;4928371;29;20504;-68
2022/04/28 10:16:19;;;;;;;4.32;1.30;;;;;;;;;;4929619;29;20050;-68
2022/04/28 10:18:49;;;;;;;4.30;1.50;;;;;;;;;;4929356;29;20777;-69
2022/04/28 10:21:16;;;;;;;4.70;1.42;;;;;;;;;;4929674;29;20039;-68
2022/04/28 10:32:23;;;;;;;7.65;1.27;;;;;;;;;;4930101;29;20058;-69
2022/04/28 10:35:02;;;;;;;9.23;1.48;;;;;;;;;;4928867;29;20079;-68
2022/04/28 10:37:32;;;;;;;8.98;1.90;;;;;;;;;;4929536;29;20087;-68
2022/04/28 10:39:58;;;;;;;10.05;1.58;;;;;;;;;;4929844;29;20407;-68
2022/04/28 10:42:27;;;;;;;3.65;1.33;;;;;;;;;;4929866;29;20536;-68
2022/04/28 10:44:54;;;;;;;4.47;1.30;;;;;;;;;;4929686;29;20047;-68
2022/04/28 10:47:36;;;;;;;5.32;1.80;;;;;;;;;;4928840;29;20044;-68
2022/04/28 10:50:03;;;;;;;5.30;1.30;;;;;;;;;;4928460;29;20474;-68
2022/04/28 10:52:29;;;;;;;8.55;1.58;;;;;;;;;;4929508;29;20040;-68
2022/04/28 10:54:59;;;;;;;5.00;1.45;;;;;;;;;;4928941;29;20450;-68
2022/04/28 10:57:37;;;;;;;6.95;1.33;;;;;;;;;;4928941;29;20059;-68
2022/04/28 11:00:04;;;;;;;4.07;1.10;;;;;;;;;;4929195;29;20071;-68
2022/04/28 11:02:36;;;;;;;5.63;1.67;;;;;;;;;;4929457;29;20047;-69
2022/04/28 11:05:04;;;;;;;5.00;2.08;;;;;;;;;;4929333;29;20043;-68
2022/04/28 11:07:31;;;;;;;4.53;1.70;;;;;;;;;;4928974;29;20054;-68
2022/04/28 11:09:58;;;;;;;5.40;1.45;;;;;;;;;;4927247;29;20071;-68
2022/04/28 11:12:25;;;;;;;4.20;1.25;;;;;;;;;;4932716;29;20055;-68
2022/04/28 11:15:03;;;;;;;5.75;1.25;;;;;;;;;;4933408;29;20051;-68
2022/04/28 11:17:30;;;;;;;5.35;1.50;;;;;;;;;;4931948;29;20052;-68
2022/04/28 11:19:58;;;;;;;5.60;1.30;;;;;;;;;;4932521;29;20100;-68
2022/04/28 11:22:24;;;;;;;4.82;1.10;;;;;;;;;;4931620;29;20051;-68
2022/04/28 11:24:50;;;;;;;3.60;1.45;;;;;;;;;;4933379;29;20044;-68
2022/04/28 11:27:20;;;;;;;5.05;1.35;;;;;;;;;;4933604;29;20102;-68
2022/04/28 11:29:46;;;;;;;5.45;1.23;;;;;;;;;;4932980;29;20553;-68
2022/04/28 11:32:15;;;;;;;3.83;1.33;;;;;;;;;;4932371;29;20051;-68
2022/04/28 11:34:43;;;;;;;4.20;1.38;;;;;;;;;;4933087;29;20502;-68
2022/04/28 11:37:17;;;;;;;4.13;1.30;;;;;;;;;;4932247;29;20070;-68
2022/04/28 11:39:43;;;;;;;3.88;1.38;;;;;;;;;;4932505;29;20056;-68
2022/04/28 11:42:10;;;;;;;3.05;1.13;;;;;;;;;;4932568;29;20044;-68
2022/04/28 11:44:44;;;;;;;4.50;1.40;;;;;;;;;;4930399;29;20058;-67
2022/04/28 11:47:10;;;;;;;3.53;1.40;;;;;;;;;;4934393;29;20222;-67
2022/04/28 11:49:39;;;;;;;5.75;1.38;;;;;;;;;;4932421;29;20140;-68
2022/04/28 11:52:26;;;;;;;3.25;1.20;;;;;;;;;;4931511;29;20059;-68
2022/04/28 11:54:57;;;;;;;2.95;1.20;;;;;;;;;;4931949;29;20557;-68
2022/04/28 11:57:23;;;;;;;4.05;1.27;;;;;;;;;;4931054;29;20127;-68
2022/04/28 11:59:50;;;;;;;3.67;1.23;;;;;;;;;;4932146;29;20123;-67
2022/04/28 12:02:29;;;;;;;3.38;1.15;;;;;;;;;;4932797;29;20110;-67
2022/04/28 12:04:55;;;;;;;4.25;1.17;;;;;;;;;;4931242;29;20055;-68
2022/04/28 12:07:22;;;;;;;3.45;1.10;;;;;;;;;;4931458;29;20110;-67
2022/04/28 12:15:22;;;;;;;3.60;1.05;;;;;;;;;;4931295;29;20095;-67
2022/04/28 12:20:39;;;;;;;2.92;1.10;;;;;;;;;;4930592;29;20058;-67
2022/04/28 12:23:05;;;;;;;4.93;1.67;;;;;;;;;;4922078;29;20090;-67
2022/04/28 12:25:37;;;;;;;4.32;1.20;;;;;;;;;;4931771;29;20099;-68
2022/04/28 12:28:05;;;;;;;3.88;1.17;;;;;;;;;;4930867;29;20478;-68
2022/04/28 12:30:35;;;;;;;4.47;1.75;;;;;;;;;;4931424;29;20126;-68
2022/04/28 12:33:03;;;;;;;2.42;0.90;;;;;;;;;;4931679;29;20458;-68
2022/04/28 12:35:35;;;;;;;4.07;1.58;;;;;;;;;;4931085;29;20075;-68
2022/04/28 12:38:02;;;;;;;4.18;1.10;;;;;;;;;;4931064;29;20434;-69
2022/04/28 12:40:36;;;;;;;4.00;1.33;;;;;;;;;;4931343;29;20052;-68
2022/04/28 12:43:02;;;;;;;3.17;1.30;;;;;;;;;;4931507;29;20048;-68
2022/04/28 12:45:50;;;;;;;5.05;1.65;;;;;;;;;;4928872;29;20078;-68
2022/04/28 12:48:30;;;;;;;4.22;1.35;;;;;;;;;;4931315;29;20070;-69
2022/04/28 12:51:14;;;;;;;5.25;1.35;;;;;;;;;;4931469;29;20176;-69
2022/04/28 12:53:44;;;;;;;3.53;1.13;;;;;;;;;;4931347;29;20122;-68
2022/04/28 12:56:14;;;;;;;4.43;1.42;;;;;;;;;;4931115;29;20462;-69
2022/04/28 12:58:42;;;;;;;3.05;1.30;;;;;;;;;;4931418;29;20070;-69
2022/04/28 13:01:09;;;;;;;6.15;1.50;;;;;;;;;;4930893;29;20051;-69
2022/04/28 13:03:35;;;;;;;3.55;1.40;;;;;;;;;;4931411;29;20106;-68
2022/04/28 13:06:02;;;;;;;3.63;1.25;;;;;;;;;;4931305;29;20051;-69
2022/04/28 13:08:28;;;;;;;2.88;1.30;;;;;;;;;;4930642;29;20039;-69
2022/04/28 13:10:54;;;;;;;4.13;1.20;;;;;;;;;;4930480;29;20604;-69
2022/04/28 13:13:20;;;;;;;3.88;1.25;;;;;;;;;;4930803;29;20099;-69
2022/04/28 13:15:46;;;;;;;4.57;1.40;;;;;;;;;;4916599;29;20091;-69
2022/04/28 13:18:12;;;;;;;3.08;1.20;;;;;;;;;;4930729;29;20047;-68
2022/04/28 13:20:38;;;;;;;4.07;1.52;;;;;;;;;;4929725;29;20099;-68
2022/04/28 13:23:05;;;;;;;4.95;1.83;;;;;;;;;;4929929;29;20139;-68
2022/04/28 13:25:31;;;;;;;4.22;1.35;;;;;;;;;;4928991;29;20048;-68
2022/04/28 13:27:57;;;;;;;5.13;1.50;;;;;;;;;;4929148;29;20097;-68
2022/04/28 13:30:23;;;;;;;8.93;1.40;;;;;;;;;;4930304;29;20055;-68
2022/04/28 13:32:49;;;;;;;3.80;1.10;;;;;;;;;;4930007;29;20075;-68
2022/04/28 13:35:15;;;;;;;3.85;1.17;;;;;;;;;;4929687;29;20067;-68
2022/04/28 13:37:41;;;;;;;6.07;1.20;;;;;;;;;;4930454;29;20110;-68
2022/04/28 13:40:08;;;;;;;5.03;1.27;;;;;;;;;;4919576;29;20102;-67
2022/04/28 13:42:34;;;;;;;5.13;1.30;;;;;;;;;;4930390;29;20047;-68
2022/04/28 13:45:00;;;;;;;3.55;1.30;;;;;;;;;;4929650;29;20062;-68
2022/04/28 13:47:27;;;;;;;3.55;1.40;;;;;;;;;;4930223;29;20044;-68
2022/04/28 13:49:56;;;;;;;3.63;1.30;;;;;;;;;;4928922;29;20398;-67
2022/04/28 13:52:22;;;;;;;3.83;1.35;;;;;;;;;;4930965;29;20123;-68
2022/04/28 13:54:48;;;;;;;4.35;1.40;;;;;;;;;;4930124;29;20047;-67
2022/04/28 13:57:14;;;;;;;3.53;1.42;;;;;;;;;;4930231;29;20477;-67
2022/04/28 13:59:40;;;;;;;4.25;1.38;;;;;;;;;;4930451;29;20040;-67
2022/04/28 14:02:07;;;;;;;2.55;1.10;;;;;;;;;;4930400;29;20387;-67
2022/04/28 14:04:33;;;;;;;3.38;1.10;;;;;;;;;;4929444;29;20114;-68
2022/04/28 14:06:59;;;;;;;5.28;1.60;;;;;;;;;;4930060;29;20066;-67
2022/04/28 14:09:27;;;;;;;8.82;1.33;;;;;;;;;;4929871;29;20138;-67
2022/04/28 14:11:55;;;;;;;2.28;1.15;;;;;;;;;;4930242;29;20533;-68
2022/04/28 14:14:21;;;;;;;4.90;1.10;;;;;;;;;;4929753;29;20051;-67
2022/04/28 14:16:48;;;;;;;2.72;1.20;;;;;;;;;;4930150;29;20051;-67
2022/04/28 14:19:14;;;;;;;3.75;1.35;;;;;;;;;;4929456;29;20155;-67
2022/04/28 14:21:42;;;;;;;2.92;1.25;;;;;;;;;;4927389;29;20051;-68
2022/04/28 14:24:08;;;;;;;3.33;1.40;;;;;;;;;;4929635;29;20051;-67
2022/04/28 14:26:35;;;;;;;3.75;1.20;;;;;;;;;;4929632;29;20506;-68
2022/04/28 14:29:02;;;;;;;3.38;1.60;;;;;;;;;;4929675;29;20095;-69
2022/04/28 14:31:29;;;;;;;3.50;1.08;;;;;;;;;;4929974;29;20047;-70
2022/04/28 14:33:55;;;;;;;3.15;1.20;;;;;;;;;;4929991;29;20047;-69
2022/04/28 14:36:21;;;;;;;2.97;1.38;;;;;;;;;;4930361;29;20822;-69
2022/04/28 14:38:47;;;;;;;3.72;1.20;;;;;;;;;;4929844;29;20044;-69
2022/04/28 14:41:13;;;;;;;2.53;1.30;;;;;;;;;;4927122;29;20699;-69
2022/04/28 14:43:39;;;;;;;3.67;1.60;;;;;;;;;;4929983;29;20596;-69
2022/04/28 14:46:05;;;;;;;4.47;1.10;;;;;;;;;;4932236;29;20059;-69
2022/04/28 14:52:19;;;;;;;4.30;1.13;;;;;;;;;;4935487;29;20054;-68
2022/04/28 14:54:02;;;;;;;4.43;1.52;;;;;;;;;;4935132;29;20058;-68
2022/04/28 14:56:28;;;;;;;3.17;1.05;;;;;;;;;;4934860;29;20043;-68
2022/04/28 14:58:54;;;;;;;3.70;1.13;;;;;;;;;;4935048;29;20052;-68
2022/04/28 15:01:20;;;;;;;2.47;1.10;;;;;;;;;;4934854;29;20054;-69
2022/04/28 15:03:46;;;;;;;4.15;1.00;;;;;;;;;;4935080;29;21200;-69
2022/04/28 15:06:13;;;;;;;3.85;1.17;;;;;;;;;;4917640;29;20044;-69
2022/04/28 15:08:41;;;;;;;3.10;1.00;;;;;;;;;;4934052;29;20060;-69
2022/04/28 15:11:08;;;;;;;2.60;0.95;;;;;;;;;;4934408;29;20047;-69
2022/04/28 15:13:35;;;;;;;3.28;1.13;;;;;;;;;;4934777;29;20419;-68
2022/04/28 15:16:01;;;;;;;3.38;1.08;;;;;;;;;;4934423;29;20106;-68
2022/04/28 15:18:28;;;;;;;4.10;1.20;;;;;;;;;;4934192;29;20071;-68
2022/04/28 15:20:54;;;;;;;3.80;1.30;;;;;;;;;;4934351;29;20051;-69
2022/04/28 15:23:20;;;;;;;3.95;1.20;;;;;;;;;;4934642;29;20040;-69